sensor_id;sensor_type;location;lat;lon;timestamp;temperature;humidity
25914;DHT22;13718;50.922;5.346;2023-02-28T00:00:07;1.20;99.90
25914;DHT22;13718;50.922;5.346;2023-02-28T00:02:36;1.30;99.90
25914;DHT22;13718;50.922;5.346;2023-02-28T00:05:02;1.30;99.90
25914;DHT22;13718;50.922;5.346;2023-02-28T00:07:29;1.20;99.90
25914;DHT22;13718;50.922;5.346;2023-02-28T00:09:54;1.10;99.90
25914;DHT22;13718;50.922;5.346;2023-02-28T00:12:20;1.10;99.90
25914;DHT22;13718;50.922;5.346;2023-02-28T00:14:45;1.10;99.90
25914;DHT22;13718;50.922;5.346;2023-02-28T00:17:11;1.10;99.90
25914;DHT22;13718;50.922;5.346;2023-02-28T00:19:36;1.10;99.90
25914;DHT22;13718;50.922;5.346;2023-02-28T00:22:02;1.10;99.90
25914;DHT22;13718;50.922;5.346;2023-02-28T00:24:27;1.10;99.90
25914;DHT22;13718;50.922;5.346;2023-02-28T00:26:53;1.00;99.90
25914;DHT22;13718;50.922;5.346;2023-02-28T00:29:18;1.00;99.90
25914;DHT22;13718;50.922;5.346;2023-02-28T00:31:44;1.00;99.90
25914;DHT22;13718;50.922;5.346;2023-02-28T00:34:09;0.90;99.90
25914;DHT22;13718;50.922;5.346;2023-02-28T00:36:35;1.00;99.90
25914;DHT22;13718;50.922;5.346;2023-02-28T00:39:00;1.00;99.90
25914;DHT22;13718;50.922;5.346;2023-02-28T00:41:26;0.90;99.90
25914;DHT22;13718;50.922;5.346;2023-02-28T00:43:51;0.90;99.90
25914;DHT22;13718;50.922;5.346;2023-02-28T00:46:17;0.90;99.90
25914;DHT22;13718;50.922;5.346;2023-02-28T00:48:42;0.80;99.90
25914;DHT22;13718;50.922;5.346;2023-02-28T00:51:08;0.80;99.90
25914;DHT22;13718;50.922;5.346;2023-02-28T00:53:34;0.80;99.90
25914;DHT22;13718;50.922;5.346;2023-02-28T00:55:59;0.80;99.90
25914;DHT22;13718;50.922;5.346;2023-02-28T00:58:26;0.80;99.90
25914;DHT22;13718;50.922;5.346;2023-02-28T01:00:51;0.70;99.90
25914;DHT22;13718;50.922;5.346;2023-02-28T01:03:18;0.80;99.90
25914;DHT22;13718;50.922;5.346;2023-02-28T01:05:44;0.80;99.90
25914;DHT22;13718;50.922;5.346;2023-02-28T01:08:09;0.70;99.90
25914;DHT22;13718;50.922;5.346;2023-02-28T01:10:35;0.70;99.90
25914;DHT22;13718;50.922;5.346;2023-02-28T01:13:02;0.70;99.90
25914;DHT22;13718;50.922;5.346;2023-02-28T01:15:28;0.70;99.90
25914;DHT22;13718;50.922;5.346;2023-02-28T01:17:53;0.80;99.90
25914;DHT22;13718;50.922;5.346;2023-02-28T01:20:19;1.00;99.90
25914;DHT22;13718;50.922;5.346;2023-02-28T01:22:44;1.00;99.90
25914;DHT22;13718;50.922;5.346;2023-02-28T01:25:10;0.90;99.90
25914;DHT22;13718;50.922;5.346;2023-02-28T01:27:35;1.00;99.90
25914;DHT22;13718;50.922;5.346;2023-02-28T01:30:02;1.10;99.90
25914;DHT22;13718;50.922;5.346;2023-02-28T01:32:27;1.00;99.90
25914;DHT22;13718;50.922;5.346;2023-02-28T01:34:53;0.90;99.90
25914;DHT22;13718;50.922;5.346;2023-02-28T01:37:18;0.90;99.90
25914;DHT22;13718;50.922;5.346;2023-02-28T01:39:44;1.00;99.90
25914;DHT22;13718;50.922;5.346;2023-02-28T01:42:09;1.30;99.90
25914;DHT22;13718;50.922;5.346;2023-02-28T01:47:19;1.00;99.90
25914;DHT22;13718;50.922;5.346;2023-02-28T01:49:45;0.90;99.90
25914;DHT22;13718;50.922;5.346;2023-02-28T01:52:11;0.70;99.90
25914;DHT22;13718;50.922;5.346;2023-02-28T01:54:40;0.60;99.90
25914;DHT22;13718;50.922;5.346;2023-02-28T01:57:07;0.60;99.90
25914;DHT22;13718;50.922;5.346;2023-02-28T01:59:36;0.50;99.90
25914;DHT22;13718;50.922;5.346;2023-02-28T02:02:03;0.50;99.90
25914;DHT22;13718;50.922;5.346;2023-02-28T02:04:32;0.50;99.90
25914;DHT22;13718;50.922;5.346;2023-02-28T02:06:59;0.50;99.90
25914;DHT22;13718;50.922;5.346;2023-02-28T02:09:25;0.40;99.90
25914;DHT22;13718;50.922;5.346;2023-02-28T02:11:50;0.40;99.90
25914;DHT22;13718;50.922;5.346;2023-02-28T02:22:14;0.30;99.90
25914;DHT22;13718;50.922;5.346;2023-02-28T02:40:13;0.10;99.90
25914;DHT22;13718;50.922;5.346;2023-02-28T02:42:41;0.10;99.90
25914;DHT22;13718;50.922;5.346;2023-02-28T02:45:11;0.10;99.90
25914;DHT22;13718;50.922;5.346;2023-02-28T02:47:38;0.00;99.90
25914;DHT22;13718;50.922;5.346;2023-02-28T02:50:05;0.00;99.90
25914;DHT22;13718;50.922;5.346;2023-02-28T02:52:34;0.00;99.90
25914;DHT22;13718;50.922;5.346;2023-02-28T02:55:02;0.00;99.90
25914;DHT22;13718;50.922;5.346;2023-02-28T02:57:30;0.00;99.90
25914;DHT22;13718;50.922;5.346;2023-02-28T02:59:57;0.00;99.90
25914;DHT22;13718;50.922;5.346;2023-02-28T03:02:23;0.00;99.90
25914;DHT22;13718;50.922;5.346;2023-02-28T03:04:51;0.00;99.90
25914;DHT22;13718;50.922;5.346;2023-02-28T03:07:17;0.20;99.90
25914;DHT22;13718;50.922;5.346;2023-02-28T03:09:50;0.10;99.90
25914;DHT22;13718;50.922;5.346;2023-02-28T03:12:15;0.10;99.90
25914;DHT22;13718;50.922;5.346;2023-02-28T03:27:21;0.10;99.90
25914;DHT22;13718;50.922;5.346;2023-02-28T03:29:50;0.20;99.90
25914;DHT22;13718;50.922;5.346;2023-02-28T03:32:23;0.10;99.90
25914;DHT22;13718;50.922;5.346;2023-02-28T03:37:25;0.00;99.90
25914;DHT22;13718;50.922;5.346;2023-02-28T03:40:01;0.00;99.90
25914;DHT22;13718;50.922;5.346;2023-02-28T03:42:28;0.00;99.90
25914;DHT22;13718;50.922;5.346;2023-02-28T03:44:58;0.00;99.90
25914;DHT22;13718;50.922;5.346;2023-02-28T03:47:31;0.10;99.90
25914;DHT22;13718;50.922;5.346;2023-02-28T03:50:05;0.10;99.90
25914;DHT22;13718;50.922;5.346;2023-02-28T03:52:33;0.10;99.90
25914;DHT22;13718;50.922;5.346;2023-02-28T03:55:00;0.20;99.90
25914;DHT22;13718;50.922;5.346;2023-02-28T03:57:37;0.20;99.90
25914;DHT22;13718;50.922;5.346;2023-02-28T04:00:25;0.20;99.90
25914;DHT22;13718;50.922;5.346;2023-02-28T04:02:53;0.20;99.90
25914;DHT22;13718;50.922;5.346;2023-02-28T04:05:19;0.10;99.90
25914;DHT22;13718;50.922;5.346;2023-02-28T04:07:45;0.00;99.90
25914;DHT22;13718;50.922;5.346;2023-02-28T04:10:11;0.00;99.90
25914;DHT22;13718;50.922;5.346;2023-02-28T04:12:36;-0.10;99.90
25914;DHT22;13718;50.922;5.346;2023-02-28T04:15:02;-0.10;99.90
25914;DHT22;13718;50.922;5.346;2023-02-28T04:17:28;0.00;99.90
25914;DHT22;13718;50.922;5.346;2023-02-28T04:19:53;0.00;99.90
25914;DHT22;13718;50.922;5.346;2023-02-28T04:22:22;-0.20;99.90
25914;DHT22;13718;50.922;5.346;2023-02-28T04:24:51;-0.20;99.90
25914;DHT22;13718;50.922;5.346;2023-02-28T04:27:16;-0.20;99.90
25914;DHT22;13718;50.922;5.346;2023-02-28T04:29:42;-0.30;99.90
25914;DHT22;13718;50.922;5.346;2023-02-28T04:32:09;-0.30;99.90
25914;DHT22;13718;50.922;5.346;2023-02-28T04:34:35;-0.40;99.90
25914;DHT22;13718;50.922;5.346;2023-02-28T04:37:01;-0.40;99.90
25914;DHT22;13718;50.922;5.346;2023-02-28T04:39:26;-0.40;99.90
25914;DHT22;13718;50.922;5.346;2023-02-28T04:41:52;-0.40;99.90
25914;DHT22;13718;50.922;5.346;2023-02-28T04:44:17;-0.40;99.90
25914;DHT22;13718;50.922;5.346;2023-02-28T04:46:43;-0.30;99.90
25914;DHT22;13718;50.922;5.346;2023-02-28T04:49:10;-0.30;99.90
25914;DHT22;13718;50.922;5.346;2023-02-28T04:51:36;-0.40;99.90
25914;DHT22;13718;50.922;5.346;2023-02-28T04:54:01;-0.40;99.90
25914;DHT22;13718;50.922;5.346;2023-02-28T04:56:27;-0.50;99.90
25914;DHT22;13718;50.922;5.346;2023-02-28T04:58:52;-0.50;99.90
25914;DHT22;13718;50.922;5.346;2023-02-28T05:01:20;-0.50;99.90
25914;DHT22;13718;50.922;5.346;2023-02-28T05:03:46;-0.50;99.90
25914;DHT22;13718;50.922;5.346;2023-02-28T05:06:12;-0.60;99.90
25914;DHT22;13718;50.922;5.346;2023-02-28T05:08:37;-0.60;99.90
25914;DHT22;13718;50.922;5.346;2023-02-28T05:11:03;-0.70;99.90
25914;DHT22;13718;50.922;5.346;2023-02-28T05:13:29;-0.70;99.90
25914;DHT22;13718;50.922;5.346;2023-02-28T05:15:55;-0.80;99.90
25914;DHT22;13718;50.922;5.346;2023-02-28T05:18:20;-0.80;99.90
25914;DHT22;13718;50.922;5.346;2023-02-28T05:20:46;-0.80;99.90
25914;DHT22;13718;50.922;5.346;2023-02-28T05:23:12;-0.80;99.90
25914;DHT22;13718;50.922;5.346;2023-02-28T05:25:38;-0.70;99.90
25914;DHT22;13718;50.922;5.346;2023-02-28T05:28:03;-0.40;99.90
25914;DHT22;13718;50.922;5.346;2023-02-28T05:30:29;-0.50;99.90
25914;DHT22;13718;50.922;5.346;2023-02-28T05:32:55;-0.60;99.90
25914;DHT22;13718;50.922;5.346;2023-02-28T05:35:20;-0.70;99.90
25914;DHT22;13718;50.922;5.346;2023-02-28T05:37:46;-0.60;99.90
25914;DHT22;13718;50.922;5.346;2023-02-28T05:40:11;-0.60;99.90
25914;DHT22;13718;50.922;5.346;2023-02-28T05:42:37;-0.70;99.90
25914;DHT22;13718;50.922;5.346;2023-02-28T05:45:03;-0.70;99.90
25914;DHT22;13718;50.922;5.346;2023-02-28T05:47:29;-0.70;99.90
25914;DHT22;13718;50.922;5.346;2023-02-28T05:49:55;-0.80;99.90
25914;DHT22;13718;50.922;5.346;2023-02-28T05:52:21;-0.80;99.90
25914;DHT22;13718;50.922;5.346;2023-02-28T05:54:46;-0.80;99.90
25914;DHT22;13718;50.922;5.346;2023-02-28T05:57:12;-0.80;99.90
25914;DHT22;13718;50.922;5.346;2023-02-28T05:59:37;-0.70;99.90
25914;DHT22;13718;50.922;5.346;2023-02-28T06:02:05;-0.70;99.90
25914;DHT22;13718;50.922;5.346;2023-02-28T06:04:31;-0.80;99.90
25914;DHT22;13718;50.922;5.346;2023-02-28T06:06:56;-0.80;99.90
25914;DHT22;13718;50.922;5.346;2023-02-28T06:09:22;-0.70;99.90
25914;DHT22;13718;50.922;5.346;2023-02-28T06:11:48;-0.80;99.90
25914;DHT22;13718;50.922;5.346;2023-02-28T06:14:14;-0.80;99.90
25914;DHT22;13718;50.922;5.346;2023-02-28T06:16:40;-0.70;99.90
25914;DHT22;13718;50.922;5.346;2023-02-28T06:19:06;-0.70;99.90
25914;DHT22;13718;50.922;5.346;2023-02-28T06:21:32;-0.70;99.90
25914;DHT22;13718;50.922;5.346;2023-02-28T06:23:57;-0.70;99.90
25914;DHT22;13718;50.922;5.346;2023-02-28T06:26:23;-0.70;99.90
25914;DHT22;13718;50.922;5.346;2023-02-28T06:28:49;-0.60;99.90
25914;DHT22;13718;50.922;5.346;2023-02-28T06:31:16;-0.70;99.90
25914;DHT22;13718;50.922;5.346;2023-02-28T06:33:41;-0.70;99.90
25914;DHT22;13718;50.922;5.346;2023-02-28T06:36:08;-0.70;99.90
25914;DHT22;13718;50.922;5.346;2023-02-28T06:38:34;-0.70;99.90
25914;DHT22;13718;50.922;5.346;2023-02-28T06:41:00;-0.70;99.90
25914;DHT22;13718;50.922;5.346;2023-02-28T06:43:28;-0.70;99.90
25914;DHT22;13718;50.922;5.346;2023-02-28T06:45:54;-0.70;99.90
25914;DHT22;13718;50.922;5.346;2023-02-28T06:48:20;-0.70;99.90
25914;DHT22;13718;50.922;5.346;2023-02-28T06:50:46;-0.70;99.90
25914;DHT22;13718;50.922;5.346;2023-02-28T06:53:12;-0.70;99.90
25914;DHT22;13718;50.922;5.346;2023-02-28T06:55:38;-0.70;99.90
25914;DHT22;13718;50.922;5.346;2023-02-28T06:58:04;-0.60;99.90
25914;DHT22;13718;50.922;5.346;2023-02-28T07:00:42;-0.50;99.90
25914;DHT22;13718;50.922;5.346;2023-02-28T07:03:09;-0.30;99.90
25914;DHT22;13718;50.922;5.346;2023-02-28T07:05:35;-0.20;99.90
25914;DHT22;13718;50.922;5.346;2023-02-28T07:08:01;0.00;99.90
25914;DHT22;13718;50.922;5.346;2023-02-28T07:10:27;0.20;99.90
25914;DHT22;13718;50.922;5.346;2023-02-28T07:12:52;0.40;99.90
25914;DHT22;13718;50.922;5.346;2023-02-28T07:15:18;0.70;99.90
25914;DHT22;13718;50.922;5.346;2023-02-28T07:17:43;1.00;99.90
25914;DHT22;13718;50.922;5.346;2023-02-28T07:20:09;1.70;99.90
25914;DHT22;13718;50.922;5.346;2023-02-28T07:22:34;2.50;99.90
25914;DHT22;13718;50.922;5.346;2023-02-28T07:25:00;3.30;99.90
25914;DHT22;13718;50.922;5.346;2023-02-28T07:27:26;4.00;99.90
25914;DHT22;13718;50.922;5.346;2023-02-28T07:29:51;4.40;99.90
25914;DHT22;13718;50.922;5.346;2023-02-28T07:32:17;4.80;99.90
25914;DHT22;13718;50.922;5.346;2023-02-28T07:34:44;5.30;99.90
25914;DHT22;13718;50.922;5.346;2023-02-28T07:37:09;5.80;99.90
25914;DHT22;13718;50.922;5.346;2023-02-28T07:39:35;6.30;99.90
25914;DHT22;13718;50.922;5.346;2023-02-28T07:42:03;6.70;99.90
25914;DHT22;13718;50.922;5.346;2023-02-28T07:44:29;6.90;99.90
25914;DHT22;13718;50.922;5.346;2023-02-28T07:46:54;7.10;99.90
25914;DHT22;13718;50.922;5.346;2023-02-28T07:49:20;7.20;99.90
25914;DHT22;13718;50.922;5.346;2023-02-28T07:51:45;7.50;99.90
25914;DHT22;13718;50.922;5.346;2023-02-28T07:54:11;7.80;99.40
25914;DHT22;13718;50.922;5.346;2023-02-28T07:56:36;8.00;98.20
25914;DHT22;13718;50.922;5.346;2023-02-28T07:59:02;7.90;97.50
25914;DHT22;13718;50.922;5.346;2023-02-28T08:01:27;8.20;97.40
25914;DHT22;13718;50.922;5.346;2023-02-28T08:03:53;8.60;96.60
25914;DHT22;13718;50.922;5.346;2023-02-28T08:06:21;8.90;95.40
25914;DHT22;13718;50.922;5.346;2023-02-28T08:08:47;9.50;94.90
25914;DHT22;13718;50.922;5.346;2023-02-28T08:11:12;9.80;93.10
25914;DHT22;13718;50.922;5.346;2023-02-28T08:13:38;9.90;92.70
25914;DHT22;13718;50.922;5.346;2023-02-28T08:16:03;9.70;92.10
25914;DHT22;13718;50.922;5.346;2023-02-28T08:18:29;9.90;92.10
25914;DHT22;13718;50.922;5.346;2023-02-28T08:20:54;10.10;91.70
25914;DHT22;13718;50.922;5.346;2023-02-28T08:23:20;10.80;91.10
25914;DHT22;13718;50.922;5.346;2023-02-28T08:25:52;11.00;88.90
25914;DHT22;13718;50.922;5.346;2023-02-28T08:28:18;11.10;88.20
25914;DHT22;13718;50.922;5.346;2023-02-28T08:30:43;11.00;85.50
25914;DHT22;13718;50.922;5.346;2023-02-28T08:33:09;10.90;86.10
25914;DHT22;13718;50.922;5.346;2023-02-28T08:35:35;11.00;85.10
25914;DHT22;13718;50.922;5.346;2023-02-28T08:38:00;10.70;83.90
25914;DHT22;13718;50.922;5.346;2023-02-28T08:40:26;10.00;85.20
25914;DHT22;13718;50.922;5.346;2023-02-28T08:42:51;8.40;88.80
25914;DHT22;13718;50.922;5.346;2023-02-28T08:45:17;7.30;90.70
25914;DHT22;13718;50.922;5.346;2023-02-28T08:47:42;6.30;92.50
25914;DHT22;13718;50.922;5.346;2023-02-28T08:50:08;5.20;94.10
25914;DHT22;13718;50.922;5.346;2023-02-28T08:52:34;4.60;95.70
25914;DHT22;13718;50.922;5.346;2023-02-28T08:54:59;4.40;96.20
25914;DHT22;13718;50.922;5.346;2023-02-28T08:57:25;4.20;96.40
25914;DHT22;13718;50.922;5.346;2023-02-28T08:59:53;4.00;97.00
25914;DHT22;13718;50.922;5.346;2023-02-28T09:02:19;4.10;97.30
25914;DHT22;13718;50.922;5.346;2023-02-28T09:04:45;3.80;97.40
25914;DHT22;13718;50.922;5.346;2023-02-28T09:07:13;4.00;97.20
25914;DHT22;13718;50.922;5.346;2023-02-28T09:09:39;4.20;96.70
25914;DHT22;13718;50.922;5.346;2023-02-28T09:12:19;4.30;96.40
25914;DHT22;13718;50.922;5.346;2023-02-28T09:14:45;4.30;96.50
25914;DHT22;13718;50.922;5.346;2023-02-28T09:17:10;4.20;96.60
25914;DHT22;13718;50.922;5.346;2023-02-28T09:19:36;4.10;96.00
25914;DHT22;13718;50.922;5.346;2023-02-28T09:22:02;4.30;95.80
25914;DHT22;13718;50.922;5.346;2023-02-28T09:24:27;4.30;95.90
25914;DHT22;13718;50.922;5.346;2023-02-28T09:26:53;4.50;94.80
25914;DHT22;13718;50.922;5.346;2023-02-28T09:29:18;4.50;94.00
25914;DHT22;13718;50.922;5.346;2023-02-28T09:31:44;4.40;94.40
25914;DHT22;13718;50.922;5.346;2023-02-28T09:34:09;4.40;93.70
25914;DHT22;13718;50.922;5.346;2023-02-28T09:36:35;4.50;93.80
25914;DHT22;13718;50.922;5.346;2023-02-28T09:39:02;4.70;92.60
25914;DHT22;13718;50.922;5.346;2023-02-28T09:41:29;4.80;92.70
25914;DHT22;13718;50.922;5.346;2023-02-28T09:44:00;4.80;92.10
25914;DHT22;13718;50.922;5.346;2023-02-28T09:46:38;4.90;90.90
25914;DHT22;13718;50.922;5.346;2023-02-28T09:49:16;4.80;91.00
25914;DHT22;13718;50.922;5.346;2023-02-28T09:54:10;4.60;91.10
25914;DHT22;13718;50.922;5.346;2023-02-28T09:56:39;4.60;91.50
25914;DHT22;13718;50.922;5.346;2023-02-28T10:06:57;4.50;91.10
25914;DHT22;13718;50.922;5.346;2023-02-28T10:09:30;4.60;91.00
25914;DHT22;13718;50.922;5.346;2023-02-28T10:11:59;4.70;91.10
25914;DHT22;13718;50.922;5.346;2023-02-28T10:14:26;4.70;90.60
25914;DHT22;13718;50.922;5.346;2023-02-28T10:16:55;4.80;90.60
25914;DHT22;13718;50.922;5.346;2023-02-28T10:19:30;4.90;90.90
25914;DHT22;13718;50.922;5.346;2023-02-28T10:24:30;4.80;90.50
25914;DHT22;13718;50.922;5.346;2023-02-28T10:27:01;4.80;91.00
25914;DHT22;13718;50.922;5.346;2023-02-28T10:29:31;4.80;90.90
25914;DHT22;13718;50.922;5.346;2023-02-28T10:31:57;4.90;90.40
25914;DHT22;13718;50.922;5.346;2023-02-28T10:34:24;5.10;90.40
25914;DHT22;13718;50.922;5.346;2023-02-28T10:36:49;5.20;88.50
25914;DHT22;13718;50.922;5.346;2023-02-28T10:42:26;5.20;87.60
25914;DHT22;13718;50.922;5.346;2023-02-28T10:45:25;5.10;88.00
25914;DHT22;13718;50.922;5.346;2023-02-28T10:50:29;5.00;85.20
25914;DHT22;13718;50.922;5.346;2023-02-28T10:52:55;5.00;86.00
25914;DHT22;13718;50.922;5.346;2023-02-28T10:55:22;5.10;86.00
25914;DHT22;13718;50.922;5.346;2023-02-28T10:57:49;5.10;84.40
25914;DHT22;13718;50.922;5.346;2023-02-28T11:00:24;5.20;84.50
25914;DHT22;13718;50.922;5.346;2023-02-28T11:02:50;5.30;83.20
25914;DHT22;13718;50.922;5.346;2023-02-28T11:07:54;5.40;83.10
25914;DHT22;13718;50.922;5.346;2023-02-28T11:10:21;5.30;82.10
25914;DHT22;13718;50.922;5.346;2023-02-28T11:12:47;5.20;82.60
25914;DHT22;13718;50.922;5.346;2023-02-28T11:20:26;5.40;82.60
25914;DHT22;13718;50.922;5.346;2023-02-28T11:22:53;5.50;81.60
25914;DHT22;13718;50.922;5.346;2023-02-28T11:27:49;5.40;79.80
25914;DHT22;13718;50.922;5.346;2023-02-28T11:30:25;5.50;81.00
25914;DHT22;13718;50.922;5.346;2023-02-28T11:32:51;5.50;80.90
25914;DHT22;13718;50.922;5.346;2023-02-28T11:35:18;5.60;79.90
25914;DHT22;13718;50.922;5.346;2023-02-28T11:37:47;5.60;79.20
25914;DHT22;13718;50.922;5.346;2023-02-28T11:40:17;5.30;79.90
25914;DHT22;13718;50.922;5.346;2023-02-28T11:46:23;5.50;80.50
25914;DHT22;13718;50.922;5.346;2023-02-28T11:50:47;5.90;78.70
25914;DHT22;13718;50.922;5.346;2023-02-28T11:53:20;5.70;78.40
25914;DHT22;13718;50.922;5.346;2023-02-28T11:55:59;5.70;79.60
25914;DHT22;13718;50.922;5.346;2023-02-28T12:01:08;5.90;79.10
25914;DHT22;13718;50.922;5.346;2023-02-28T12:06:14;5.70;79.60
25914;DHT22;13718;50.922;5.346;2023-02-28T12:08:49;5.60;79.50
25914;DHT22;13718;50.922;5.346;2023-02-28T12:11:20;5.60;79.90
25914;DHT22;13718;50.922;5.346;2023-02-28T12:13:49;5.70;80.00
25914;DHT22;13718;50.922;5.346;2023-02-28T12:16:29;5.80;80.00
25914;DHT22;13718;50.922;5.346;2023-02-28T12:22:19;5.70;80.00
25914;DHT22;13718;50.922;5.346;2023-02-28T12:24:36;5.80;80.00
25914;DHT22;13718;50.922;5.346;2023-02-28T12:27:05;5.80;79.90
25914;DHT22;13718;50.922;5.346;2023-02-28T12:29:34;5.70;80.50
25914;DHT22;13718;50.922;5.346;2023-02-28T12:32:06;5.80;79.00
25914;DHT22;13718;50.922;5.346;2023-02-28T12:34:37;5.50;79.50
25914;DHT22;13718;50.922;5.346;2023-02-28T12:37:07;5.40;82.10
25914;DHT22;13718;50.922;5.346;2023-02-28T12:39:36;5.60;80.40
25914;DHT22;13718;50.922;5.346;2023-02-28T12:42:04;5.80;79.20
25914;DHT22;13718;50.922;5.346;2023-02-28T12:44:34;5.90;79.90
25914;DHT22;13718;50.922;5.346;2023-02-28T12:47:02;5.70;80.20
25914;DHT22;13718;50.922;5.346;2023-02-28T12:49:34;5.80;81.10
25914;DHT22;13718;50.922;5.346;2023-02-28T12:52:02;6.00;80.20
25914;DHT22;13718;50.922;5.346;2023-02-28T12:54:44;6.00;79.30
25914;DHT22;13718;50.922;5.346;2023-02-28T12:57:13;6.00;79.00
25914;DHT22;13718;50.922;5.346;2023-02-28T13:00:00;6.00;79.70
25914;DHT22;13718;50.922;5.346;2023-02-28T13:09:57;6.00;78.90
25914;DHT22;13718;50.922;5.346;2023-02-28T13:12:23;6.00;79.00
25914;DHT22;13718;50.922;5.346;2023-02-28T13:14:48;6.00;79.20
25914;DHT22;13718;50.922;5.346;2023-02-28T13:17:22;6.00;78.70
25914;DHT22;13718;50.922;5.346;2023-02-28T13:29:40;6.20;79.30
25914;DHT22;13718;50.922;5.346;2023-02-28T13:47:28;6.10;82.10
25914;DHT22;13718;50.922;5.346;2023-02-28T13:49:53;6.30;81.00
25914;DHT22;13718;50.922;5.346;2023-02-28T13:52:22;6.30;80.30
25914;DHT22;13718;50.922;5.346;2023-02-28T13:57:19;6.30;80.00
25914;DHT22;13718;50.922;5.346;2023-02-28T14:05:06;6.30;80.80
25914;DHT22;13718;50.922;5.346;2023-02-28T14:07:47;6.30;80.40
25914;DHT22;13718;50.922;5.346;2023-02-28T14:10:25;6.20;80.30
25914;DHT22;13718;50.922;5.346;2023-02-28T14:17:52;6.30;81.70
25914;DHT22;13718;50.922;5.346;2023-02-28T14:20:18;6.20;81.40
25914;DHT22;13718;50.922;5.346;2023-02-28T14:22:57;6.40;81.30
25914;DHT22;13718;50.922;5.346;2023-02-28T14:36:12;6.40;82.60
25914;DHT22;13718;50.922;5.346;2023-02-28T14:38:41;6.60;82.30
25914;DHT22;13718;50.922;5.346;2023-02-28T14:41:13;6.50;81.40
25914;DHT22;13718;50.922;5.346;2023-02-28T14:43:47;6.40;81.70
25914;DHT22;13718;50.922;5.346;2023-02-28T14:46:13;6.40;82.60
25914;DHT22;13718;50.922;5.346;2023-02-28T14:48:39;6.10;83.50
25914;DHT22;13718;50.922;5.346;2023-02-28T14:51:04;6.30;83.10
25914;DHT22;13718;50.922;5.346;2023-02-28T14:53:34;6.30;83.40
25914;DHT22;13718;50.922;5.346;2023-02-28T14:56:00;6.30;83.50
25914;DHT22;13718;50.922;5.346;2023-02-28T14:58:30;6.20;84.10
25914;DHT22;13718;50.922;5.346;2023-02-28T15:00:57;6.30;83.80
25914;DHT22;13718;50.922;5.346;2023-02-28T15:03:24;6.30;83.70
25914;DHT22;13718;50.922;5.346;2023-02-28T15:05:54;6.20;83.50
25914;DHT22;13718;50.922;5.346;2023-02-28T15:08:19;5.70;82.70
25914;DHT22;13718;50.922;5.346;2023-02-28T15:10:49;5.60;83.60
25914;DHT22;13718;50.922;5.346;2023-02-28T15:13:16;5.50;85.40
25914;DHT22;13718;50.922;5.346;2023-02-28T15:15:50;5.80;84.40
25914;DHT22;13718;50.922;5.346;2023-02-28T15:18:21;5.90;83.70
25914;DHT22;13718;50.922;5.346;2023-02-28T15:20:48;5.90;84.00
25914;DHT22;13718;50.922;5.346;2023-02-28T15:23:14;6.10;83.80
25914;DHT22;13718;50.922;5.346;2023-02-28T15:25:40;6.20;83.10
25914;DHT22;13718;50.922;5.346;2023-02-28T15:28:09;6.40;83.40
25914;DHT22;13718;50.922;5.346;2023-02-28T15:30:37;6.30;82.90
25914;DHT22;13718;50.922;5.346;2023-02-28T15:33:16;6.30;83.20
25914;DHT22;13718;50.922;5.346;2023-02-28T15:35:43;6.30;83.30
25914;DHT22;13718;50.922;5.346;2023-02-28T15:40:45;6.20;83.10
25914;DHT22;13718;50.922;5.346;2023-02-28T15:43:28;6.10;83.50
25914;DHT22;13718;50.922;5.346;2023-02-28T15:48:24;6.30;83.30
25914;DHT22;13718;50.922;5.346;2023-02-28T15:50:55;6.20;83.20
25914;DHT22;13718;50.922;5.346;2023-02-28T15:53:23;6.10;83.60
25914;DHT22;13718;50.922;5.346;2023-02-28T15:55:57;6.20;84.10
25914;DHT22;13718;50.922;5.346;2023-02-28T15:58:24;6.30;83.30
25914;DHT22;13718;50.922;5.346;2023-02-28T16:00:59;6.40;83.00
25914;DHT22;13718;50.922;5.346;2023-02-28T16:03:34;6.50;82.30
25914;DHT22;13718;50.922;5.346;2023-02-28T16:08:54;6.40;82.70
25914;DHT22;13718;50.922;5.346;2023-02-28T16:11:20;6.40;82.60
25914;DHT22;13718;50.922;5.346;2023-02-28T16:13:46;6.30;83.10
25914;DHT22;13718;50.922;5.346;2023-02-28T16:16:19;6.10;83.60
25914;DHT22;13718;50.922;5.346;2023-02-28T16:21:13;6.00;84.40
25914;DHT22;13718;50.922;5.346;2023-02-28T16:23:38;5.90;83.80
25914;DHT22;13718;50.922;5.346;2023-02-28T16:26:04;5.60;85.00
25914;DHT22;13718;50.922;5.346;2023-02-28T16:28:31;5.60;85.30
25914;DHT22;13718;50.922;5.346;2023-02-28T16:30:59;5.40;85.50
25914;DHT22;13718;50.922;5.346;2023-02-28T16:33:25;5.20;86.00
25914;DHT22;13718;50.922;5.346;2023-02-28T16:35:51;5.10;86.70
25914;DHT22;13718;50.922;5.346;2023-02-28T16:38:17;5.10;87.60
25914;DHT22;13718;50.922;5.346;2023-02-28T16:40:42;5.20;87.00
25914;DHT22;13718;50.922;5.346;2023-02-28T16:43:09;5.50;86.10
25914;DHT22;13718;50.922;5.346;2023-02-28T16:45:38;5.70;85.80
25914;DHT22;13718;50.922;5.346;2023-02-28T16:48:04;5.70;85.20
25914;DHT22;13718;50.922;5.346;2023-02-28T16:50:30;5.50;86.00
25914;DHT22;13718;50.922;5.346;2023-02-28T16:52:55;5.20;86.70
25914;DHT22;13718;50.922;5.346;2023-02-28T16:55:24;5.00;87.30
25914;DHT22;13718;50.922;5.346;2023-02-28T16:57:57;5.10;87.50
25914;DHT22;13718;50.922;5.346;2023-02-28T17:00:23;5.20;87.20
25914;DHT22;13718;50.922;5.346;2023-02-28T17:02:49;5.60;86.00
25914;DHT22;13718;50.922;5.346;2023-02-28T17:05:14;5.50;85.80
25914;DHT22;13718;50.922;5.346;2023-02-28T17:07:40;5.60;86.00
25914;DHT22;13718;50.922;5.346;2023-02-28T17:10:14;5.50;86.60
25914;DHT22;13718;50.922;5.346;2023-02-28T17:12:39;5.30;87.00
25914;DHT22;13718;50.922;5.346;2023-02-28T17:15:05;5.20;87.30
25914;DHT22;13718;50.922;5.346;2023-02-28T17:17:31;5.00;87.90
25914;DHT22;13718;50.922;5.346;2023-02-28T17:19:57;4.90;88.80
25914;DHT22;13718;50.922;5.346;2023-02-28T17:22:23;4.70;89.40
25914;DHT22;13718;50.922;5.346;2023-02-28T17:24:50;4.80;89.30
25914;DHT22;13718;50.922;5.346;2023-02-28T17:27:16;4.60;89.90
25914;DHT22;13718;50.922;5.346;2023-02-28T17:29:41;4.70;89.80
25914;DHT22;13718;50.922;5.346;2023-02-28T17:32:07;4.70;89.80
25914;DHT22;13718;50.922;5.346;2023-02-28T17:34:32;4.60;90.30
25914;DHT22;13718;50.922;5.346;2023-02-28T17:36:58;4.70;89.80
25914;DHT22;13718;50.922;5.346;2023-02-28T17:39:23;4.50;90.40
25914;DHT22;13718;50.922;5.346;2023-02-28T17:41:55;4.50;90.50
25914;DHT22;13718;50.922;5.346;2023-02-28T17:44:21;4.20;90.70
25914;DHT22;13718;50.922;5.346;2023-02-28T17:46:47;4.20;91.10
25914;DHT22;13718;50.922;5.346;2023-02-28T17:49:13;4.10;91.30
25914;DHT22;13718;50.922;5.346;2023-02-28T17:51:38;4.10;92.80
25914;DHT22;13718;50.922;5.346;2023-02-28T17:54:04;4.30;91.80
25914;DHT22;13718;50.922;5.346;2023-02-28T17:56:30;4.20;91.50
25914;DHT22;13718;50.922;5.346;2023-02-28T17:58:56;4.10;91.60
25914;DHT22;13718;50.922;5.346;2023-02-28T18:01:22;3.90;91.70
25914;DHT22;13718;50.922;5.346;2023-02-28T18:03:48;3.90;91.90
25914;DHT22;13718;50.922;5.346;2023-02-28T18:06:27;3.80;92.10
25914;DHT22;13718;50.922;5.346;2023-02-28T18:08:53;3.70;92.30
25914;DHT22;13718;50.922;5.346;2023-02-28T18:11:20;3.70;92.20
25914;DHT22;13718;50.922;5.346;2023-02-28T18:13:50;3.80;92.10